• Join FlightAware (Why Join?)
  • Login
  • US Flag 
04:50AM EDT


 

Airport Tracker/Info


-or-


 

Live Flight TrackerFlight Track Log ✈ SWA2150 ✈ 29-Jun-2013 ✈ KGSP - KMDW

Flight Track Log - Related Links

Times and Time Zones

All times are in EDT time to prevent confusion due to time zone crossing. See the SWA2150 flight status page for this flight to view local times or setup timezone preferences in your user account.

Time Position Orientation Groundspeed Altitude Reporting Facility
EDT Latitude Longitude Course Direction KTS MPH feet Rate Location/Type
06:43AM 34.8561 -82.2542 309° West 185 213 2,400  Level Atlanta Center
06:44AM 34.8506 -82.3100 263° West 170 196 4,900 2,520 Climbing Atlanta Center
06:45AM 34.8953 -82.3725 311° West 197 227 7,500 3,000 Climbing Atlanta Center
06:46AM 34.9442 -82.4475 309° West 227 261 10,900 2,760 Climbing Atlanta Center
06:47AM 35.0058 -82.5350 311° West 303 349 13,100 2,700 Climbing Atlanta Center
06:49AM 35.2521 -82.8031 309° West  Level FlightAware Approximate
06:49AM 35.1269 -82.7183 309° West 368 423 19,100  Level Atlanta Center
06:50AM 35.1947 -82.8139 311° West 376 433 21,600 2,220 Climbing Atlanta Center
06:51AM 35.2647 -82.9194 309° West 391 450 23,600 1,980 Climbing Atlanta Center
06:52AM 35.3344 -83.0256 309° West 397 457 25,600 1,980 Climbing Atlanta Center
06:53AM 35.4106 -83.1469 308° West 404 465 27,600 1,800 Climbing Atlanta Center
06:54AM 35.4864 -83.2583 310° West 422 486 29,300 1,800 Climbing Atlanta Center
06:55AM 35.5619 -83.3700 310° West 422 486 31,200 1,860 Climbing Atlanta Center
06:56AM 35.6356 -83.4842 308° West 422 486 33,100 1,800 Climbing Atlanta Center
06:57AM 35.7194 -83.5833 316° Northwest 422 486 34,900 1,920 Climbing Atlanta Center
06:58AM 35.8158 -83.6622 326° Northwest 417 480 37,000 1,500 Climbing Atlanta Center
06:59AM 35.9097 -83.7414 326° Northwest 412 474 38,000 300 Climbing Atlanta Center
07:01AM 36.0803 -83.8775 327° Northwest 410 472 38,000  Level Indianapolis Center
07:02AM 36.1767 -83.9544 327° Northwest 412 474 38,000  Level Indianapolis Center
07:03AM 36.2739 -84.0356 326° Northwest 419 482 38,000  Level Indianapolis Center
07:04AM 36.3717 -84.1147 327° Northwest 421 484 38,000  Level Indianapolis Center
07:05AM 36.4694 -84.1964 326° Northwest 425 489 38,000  Level Indianapolis Center
07:06AM 36.5733 -84.2808 327° Northwest 422 486 38,000  Level Indianapolis Center
07:07AM 36.6686 -84.3597 326° Northwest 414 476 38,000  Level Indianapolis Center
07:08AM 36.7647 -84.4408 326° Northwest 413 475 38,000  Level Indianapolis Center
07:09AM 36.8519 -84.5133 326° Northwest 413 475 38,000  Level Indianapolis Center
07:10AM 36.9489 -84.5919 327° Northwest 416 479 38,000  Level Indianapolis Center
07:11AM 37.0714 -84.6472 340° North 426 490 38,000  Level Indianapolis Center
07:12AM 37.1850 -84.6908 343° North 426 490 38,000  Level Indianapolis Center
07:13AM 37.2964 -84.7347 343° North 421 484 38,000  Level Indianapolis Center
07:14AM 37.4083 -84.7786 343° North 421 484 38,000  Level Indianapolis Center
07:15AM 37.5200 -84.8233 342° North 420 483 38,000  Level Indianapolis Center
07:16AM 37.6331 -84.8692 342° North 424 488 38,000  Level Indianapolis Center
07:17AM 37.7450 -84.9128 343° North 421 484 38,000  Level Indianapolis Center
07:18AM 37.8578 -84.9567 343° North 422 486 38,000  Level Indianapolis Center
07:20AM 37.9900 -85.0078 343° North 424 488 38,000 -60 Level Indianapolis Center
07:21AM 38.1025 -85.0539 342° North 422 486 37,900 -600 Descending Indianapolis Center
07:22AM 38.2178 -85.0978 343° North 427 491 36,900 -960 Descending Indianapolis Center
07:23AM 38.3286 -85.1422 343° North 418 481 36,000 -480 Descending Indianapolis Center
07:24AM 38.4400 -85.1878 342° North 419 482 36,000  Level Indianapolis Center
07:25AM 38.5506 -85.2344 342° North 421 484 36,000  Level Indianapolis Center
07:26AM 38.6592 -85.2767 343° North 426 490 36,000  Level Indianapolis Center
07:27AM 38.7728 -85.3239 342° North 431 496 36,000  Level Indianapolis Center
07:28AM 38.8861 -85.3703 342° North 430 495 36,000  Level Indianapolis Center
07:29AM 39.0003 -85.4178 342° North 432 497 36,000 -480 Level Indianapolis Center
07:30AM 39.1153 -85.4636 343° North 434 499 35,100 -1,920 Descending Indianapolis Center
07:31AM 39.2303 -85.5119 342° North 435 501 32,200 -2,640 Descending Indianapolis Center
07:32AM 39.3653 -85.5675 342° North 428 493 29,800 -1,680 Descending Indianapolis Center
07:33AM 39.4761 -85.6125 343° North 421 484 28,800 -960 Descending Indianapolis Center
07:34AM 39.5847 -85.6586 342° North 415 478 27,900 -960 Descending Indianapolis Center
07:35AM 39.6922 -85.7033 342° North 410 472 26,900 -1,020 Descending Indianapolis Center
07:36AM 39.7989 -85.7489 342° North 409 471 25,900 -1,020 Descending Indianapolis Center
07:37AM 39.9067 -85.7936 342° North 409 471 24,900 -960 Descending Indianapolis Center
07:38AM 40.0097 -85.8478 338° Northwest 405 466 24,000 -480 Descending Indianapolis Center
07:39AM 40.1075 -85.9125 333° Northwest 398 458 24,000  Level Indianapolis Center
07:40AM 40.2036 -85.9794 332° Northwest 396 456 24,000 -240 Level Indianapolis Center
07:41AM 40.3203 -86.0589 333° Northwest 397 457 23,600 -720 Descending Indianapolis Center
07:42AM 40.4150 -86.1242 332° Northwest 390 449 22,600 -840 Descending Indianapolis Center
07:43AM 40.5100 -86.1889 333° Northwest 386 444 22,000 -300 Descending Indianapolis Center
07:44AM 40.6028 -86.2531 332° Northwest 380 437 22,000 -480 Level Indianapolis Center
07:45AM 40.6953 -86.3175 332° Northwest 378 435 21,100 -1,440 Descending Indianapolis Center
07:46AM 40.7853 -86.3803 332° Northwest 370 426 19,100 -2,160 Descending Indianapolis Center
07:47AM 40.8717 -86.4411 332° Northwest 359 413 16,800 -2,160 Descending Indianapolis Center
07:48AM 40.9567 -86.4989 333° Northwest 347 399 14,800 -1,920 Descending Indianapolis Center
07:49AM 41.0392 -86.5583 331° Northwest 342 394 12,900 -1,920 Descending Indianapolis Center
07:50AM 41.1206 -86.6169 332° Northwest 338 389 11,000 -1,380 Descending Indianapolis Center
07:51AM 41.1847 -86.6969 317° Northwest 325 374 10,200 -420 Descending Indianapolis Center
07:52AM 41.2789 -86.8325 313° West 315 362 10,000 -180 Descending Chicago Center